createdAt,value
2018-06-30T00:00:44.687Z,1014.96
2018-06-30T00:01:44.583Z,1015.03
2018-06-30T00:02:44.598Z,1015.01
2018-06-30T00:03:44.556Z,1014.99
2018-06-30T00:04:44.564Z,1014.98
2018-06-30T00:05:44.562Z,1014.99
2018-06-30T00:06:44.678Z,1014.93
2018-06-30T00:07:44.727Z,1014.97
2018-06-30T00:08:44.546Z,1015.01
2018-06-30T00:09:44.548Z,1015.05
2018-06-30T00:10:44.533Z,1015.06
2018-06-30T00:11:44.526Z,1015.01
2018-06-30T00:12:44.718Z,1015.04
2018-06-30T00:13:44.513Z,1015.03
2018-06-30T00:14:44.547Z,1015
2018-06-30T00:15:44.534Z,1015
2018-06-30T00:16:44.529Z,1014.97
2018-06-30T00:17:44.670Z,1014.96
2018-06-30T00:18:44.525Z,1014.99
2018-06-30T00:19:44.531Z,1014.98
2018-06-30T00:20:44.525Z,1015
2018-06-30T00:21:44.530Z,1015
2018-06-30T00:22:44.512Z,1015.01
2018-06-30T00:23:44.524Z,1015.02
2018-06-30T00:24:44.510Z,1014.99
2018-06-30T00:25:44.537Z,1014.98
2018-06-30T00:26:44.511Z,1014.97
2018-06-30T00:27:44.507Z,1014.99
2018-06-30T00:28:44.517Z,1015.01
2018-06-30T00:29:44.520Z,1015.05
2018-06-30T00:30:44.530Z,1015.05
2018-06-30T00:31:44.522Z,1015.03
2018-06-30T00:32:44.535Z,1015.01
2018-06-30T00:33:44.565Z,1015.01
2018-06-30T00:34:44.660Z,1015.02
2018-06-30T00:35:44.539Z,1015
2018-06-30T00:36:44.533Z,1014.98
2018-06-30T00:37:44.524Z,1014.98
2018-06-30T00:38:44.516Z,1015.06
2018-06-30T00:39:44.535Z,1014.99
2018-06-30T00:40:44.537Z,1014.94
2018-06-30T00:41:44.547Z,1014.95
2018-06-30T00:42:44.599Z,1014.98
2018-06-30T00:43:44.559Z,1015.01
2018-06-30T00:44:44.564Z,1015.06
2018-06-30T00:45:44.571Z,1014.98
2018-06-30T00:46:44.537Z,1014.99
2018-06-30T00:47:44.579Z,1015
2018-06-30T00:48:44.569Z,1014.97
2018-06-30T00:49:44.534Z,1014.96
2018-06-30T00:50:44.731Z,1014.97
2018-06-30T00:51:44.531Z,1014.96
2018-06-30T00:52:44.543Z,1015
2018-06-30T00:53:44.683Z,1014.93
2018-06-30T00:54:44.519Z,1014.96
2018-06-30T00:55:44.561Z,1014.97
2018-06-30T00:56:44.548Z,1014.92
2018-06-30T00:57:44.515Z,1014.98
2018-06-30T00:58:44.513Z,1014.91
2018-06-30T00:59:44.513Z,1014.94
2018-06-30T01:00:44.581Z,1015
2018-06-30T01:01:44.522Z,1015.02
2018-06-30T01:02:44.581Z,1014.99
2018-06-30T01:03:44.550Z,1014.97
2018-06-30T01:04:44.510Z,1015
2018-06-30T01:05:44.519Z,1014.97
2018-06-30T01:06:44.775Z,1015.01
2018-06-30T01:07:44.524Z,1015.01
2018-06-30T01:08:44.540Z,1015.01
2018-06-30T01:09:44.527Z,1015.01
2018-06-30T01:10:44.544Z,1015.03
2018-06-30T01:11:44.555Z,1015.05
2018-06-30T01:12:44.606Z,1015
2018-06-30T01:13:44.736Z,1014.99
2018-06-30T01:14:44.561Z,1015.01
2018-06-30T01:15:44.518Z,1015.01
2018-06-30T01:16:44.607Z,1015.02
2018-06-30T01:17:44.551Z,1014.97
2018-06-30T01:18:44.537Z,1014.99
2018-06-30T01:19:44.640Z,1015
2018-06-30T01:20:45.014Z,1015.02
2018-06-30T01:21:44.538Z,1015.03
2018-06-30T01:22:44.526Z,1014.97
2018-06-30T01:23:44.533Z,1015
2018-06-30T01:24:44.514Z,1015.04
2018-06-30T01:25:44.512Z,1014.98
2018-06-30T01:26:44.521Z,1014.97
2018-06-30T01:27:44.505Z,1014.96
2018-06-30T01:28:44.499Z,1014.98
2018-06-30T01:29:44.512Z,1014.99
2018-06-30T01:30:44.524Z,1014.96
2018-06-30T01:31:44.533Z,1014.97
2018-06-30T01:32:44.496Z,1014.99
2018-06-30T01:33:44.502Z,1014.97
2018-06-30T01:34:44.500Z,1015
2018-06-30T01:35:44.515Z,1014.99
2018-06-30T01:36:44.512Z,1014.97
2018-06-30T01:37:44.490Z,1014.98
2018-06-30T01:38:44.498Z,1015
2018-06-30T01:39:44.506Z,1015
2018-06-30T01:40:44.502Z,1014.98
2018-06-30T01:41:44.510Z,1015
2018-06-30T01:42:44.517Z,1014.99
2018-06-30T01:43:44.528Z,1015.01
2018-06-30T01:44:44.519Z,1015
2018-06-30T01:45:44.527Z,1015.07
2018-06-30T01:46:44.514Z,1015.05
2018-06-30T01:47:44.541Z,1015.09
2018-06-30T01:48:44.523Z,1015.07
2018-06-30T01:49:44.612Z,1015.06
2018-06-30T01:50:44.593Z,1015.09
2018-06-30T01:51:44.532Z,1015.1
2018-06-30T01:52:44.852Z,1015.09
2018-06-30T01:53:44.531Z,1015.09
2018-06-30T01:54:44.947Z,1015.12
2018-06-30T01:55:44.572Z,1015.14
2018-06-30T01:56:44.619Z,1015.19
2018-06-30T01:57:44.523Z,1015.14
2018-06-30T01:58:44.574Z,1015.13
2018-06-30T01:59:44.499Z,1015.15
2018-06-30T02:00:44.528Z,1015.13
2018-06-30T02:01:44.696Z,1015.12
2018-06-30T02:02:44.538Z,1015.1
2018-06-30T02:03:44.699Z,1015.14
2018-06-30T02:04:44.562Z,1015.12
2018-06-30T02:05:44.474Z,1015.14
2018-06-30T02:06:44.517Z,1015.08
2018-06-30T02:07:44.564Z,1015.07
2018-06-30T02:08:44.559Z,1015.11
2018-06-30T02:09:44.505Z,1015.06
2018-06-30T02:10:44.512Z,1015.06
2018-06-30T02:11:44.537Z,1015.1
2018-06-30T02:12:44.507Z,1015.1
2018-06-30T02:13:44.515Z,1015.11
2018-06-30T02:14:44.532Z,1015.1
2018-06-30T02:15:44.492Z,1015.09
2018-06-30T02:16:44.603Z,1015.08
2018-06-30T02:17:44.501Z,1015.1
2018-06-30T02:18:44.506Z,1015.1
2018-06-30T02:19:44.570Z,1015.08
2018-06-30T02:20:44.526Z,1015.06
2018-06-30T02:21:44.631Z,1015.08
2018-06-30T02:22:44.541Z,1015.05
2018-06-30T02:23:44.503Z,1015.08
2018-06-30T02:24:44.505Z,1015.05
2018-06-30T02:25:44.563Z,1015.04
2018-06-30T02:26:44.600Z,1015.02
2018-06-30T02:27:44.594Z,1015.03
2018-06-30T02:28:44.515Z,1015.04
2018-06-30T02:29:44.525Z,1014.99
2018-06-30T02:30:44.490Z,1015.02
2018-06-30T02:31:44.498Z,1014.99
2018-06-30T02:32:44.665Z,1015
2018-06-30T02:33:44.559Z,1014.96
2018-06-30T02:34:44.523Z,1014.99
2018-06-30T02:35:44.550Z,1014.99
2018-06-30T02:36:44.567Z,1015.03
2018-06-30T02:37:44.531Z,1015.01
2018-06-30T02:38:44.540Z,1015.01
2018-06-30T02:39:44.496Z,1015.01
2018-06-30T02:40:44.560Z,1015
2018-06-30T02:41:44.506Z,1015.04
2018-06-30T02:42:44.472Z,1015.02
2018-06-30T02:43:44.517Z,1014.99
2018-06-30T02:44:44.484Z,1015.01
2018-06-30T02:45:44.495Z,1015.04
2018-06-30T02:46:44.498Z,1015.07
2018-06-30T02:47:44.468Z,1015.06
2018-06-30T02:48:44.506Z,1015.06
2018-06-30T02:49:44.495Z,1015.07
2018-06-30T02:50:44.530Z,1015.07
2018-06-30T02:51:44.671Z,1015.09
2018-06-30T02:52:44.498Z,1015.1
2018-06-30T02:53:44.558Z,1015.12
2018-06-30T02:54:44.505Z,1015.09
2018-06-30T02:55:44.516Z,1015.1
2018-06-30T02:56:44.495Z,1015.08
2018-06-30T02:57:44.499Z,1015.1
2018-06-30T02:58:44.704Z,1015.1
2018-06-30T02:59:44.500Z,1015.15
2018-06-30T03:00:44.470Z,1015.14
2018-06-30T03:01:44.492Z,1015.17
2018-06-30T03:02:44.501Z,1015.15
2018-06-30T03:03:44.528Z,1015.18
2018-06-30T03:04:44.515Z,1015.15
2018-06-30T03:05:44.531Z,1015.14
2018-06-30T03:06:44.507Z,1015.16
2018-06-30T03:07:44.546Z,1015.17
2018-06-30T03:08:44.502Z,1015.2
2018-06-30T03:09:44.505Z,1015.19
2018-06-30T03:10:44.490Z,1015.23
2018-06-30T03:11:44.513Z,1015.28
2018-06-30T03:12:44.509Z,1015.3
2018-06-30T03:13:44.518Z,1015.28
2018-06-30T03:14:44.490Z,1015.26
2018-06-30T03:15:44.488Z,1015.29
2018-06-30T03:16:44.503Z,1015.31
2018-06-30T03:17:44.680Z,1015.33
2018-06-30T03:18:44.681Z,1015.31
2018-06-30T03:19:44.524Z,1015.33
2018-06-30T03:20:44.532Z,1015.35
2018-06-30T03:21:44.539Z,1015.34
2018-06-30T03:22:44.483Z,1015.34
2018-06-30T03:23:44.504Z,1015.33
2018-06-30T03:24:44.502Z,1015.35
2018-06-30T03:25:44.534Z,1015.34
2018-06-30T03:26:44.622Z,1015.32
2018-06-30T03:27:44.643Z,1015.35
2018-06-30T03:28:44.574Z,1015.3
2018-06-30T03:29:44.489Z,1015.31
2018-06-30T03:30:44.492Z,1015.29
2018-06-30T03:31:44.870Z,1015.28
2018-06-30T03:32:44.504Z,1015.34
2018-06-30T03:33:44.463Z,1015.32
2018-06-30T03:34:44.520Z,1015.32
2018-06-30T03:35:44.638Z,1015.32
2018-06-30T03:36:44.492Z,1015.3
2018-06-30T03:37:44.561Z,1015.34
2018-06-30T03:38:44.470Z,1015.33
2018-06-30T03:39:44.518Z,1015.36
2018-06-30T03:40:44.561Z,1015.33
2018-06-30T03:41:44.937Z,1015.38
2018-06-30T03:42:44.473Z,1015.38
2018-06-30T03:43:44.481Z,1015.35
2018-06-30T03:44:44.469Z,1015.38
2018-06-30T03:45:44.501Z,1015.38
2018-06-30T03:46:44.487Z,1015.4
2018-06-30T03:47:44.472Z,1015.47
2018-06-30T03:48:44.477Z,1015.45
2018-06-30T03:49:44.467Z,1015.44
2018-06-30T03:50:44.465Z,1015.42
2018-06-30T03:51:44.481Z,1015.45
2018-06-30T03:52:44.497Z,1015.42
2018-06-30T03:53:44.460Z,1015.42
2018-06-30T03:54:44.456Z,1015.42
2018-06-30T03:55:44.479Z,1015.38
2018-06-30T03:56:44.471Z,1015.38
2018-06-30T03:57:44.501Z,1015.36
2018-06-30T03:58:44.457Z,1015.35
2018-06-30T03:59:44.466Z,1015.34
2018-06-30T04:00:44.556Z,1015.35
2018-06-30T04:01:44.471Z,1015.35
2018-06-30T04:02:44.496Z,1015.32
2018-06-30T04:03:44.959Z,1015.38
2018-06-30T04:04:44.480Z,1015.38
2018-06-30T04:05:44.498Z,1015.35
2018-06-30T04:06:44.453Z,1015.39
2018-06-30T04:07:44.512Z,1015.36
2018-06-30T04:08:44.498Z,1015.39
2018-06-30T04:09:44.467Z,1015.41
2018-06-30T04:10:44.520Z,1015.4
2018-06-30T04:11:44.459Z,1015.39
2018-06-30T04:12:44.477Z,1015.36
2018-06-30T04:13:44.969Z,1015.37
2018-06-30T04:14:44.629Z,1015.39
2018-06-30T04:15:44.611Z,1015.35
2018-06-30T04:16:44.476Z,1015.37
2018-06-30T04:17:44.671Z,1015.35
2018-06-30T04:18:44.506Z,1015.37
2018-06-30T04:19:44.486Z,1015.37
2018-06-30T04:20:44.496Z,1015.38
2018-06-30T04:21:44.446Z,1015.37
2018-06-30T04:22:44.608Z,1015.36
2018-06-30T04:23:44.461Z,1015.39
2018-06-30T04:24:44.514Z,1015.37
2018-06-30T04:25:44.931Z,1015.33
2018-06-30T04:26:44.520Z,1015.41
2018-06-30T04:27:44.448Z,1015.35
2018-06-30T04:28:44.454Z,1015.34
2018-06-30T04:29:44.471Z,1015.35
2018-06-30T04:30:44.478Z,1015.35
2018-06-30T04:31:44.519Z,1015.35
2018-06-30T04:32:44.447Z,1015.38
2018-06-30T04:33:44.488Z,1015.38
2018-06-30T04:34:44.581Z,1015.37
2018-06-30T04:35:44.501Z,1015.38
2018-06-30T04:36:44.471Z,1015.38
2018-06-30T04:37:44.436Z,1015.38
2018-06-30T04:38:44.458Z,1015.35
2018-06-30T04:39:44.467Z,1015.37
2018-06-30T04:40:44.433Z,1015.34
2018-06-30T04:41:44.457Z,1015.39
2018-06-30T04:42:44.497Z,1015.38
2018-06-30T04:43:44.501Z,1015.38
2018-06-30T04:44:44.448Z,1015.4
2018-06-30T04:45:44.447Z,1015.41
2018-06-30T04:46:44.466Z,1015.43
2018-06-30T04:47:44.533Z,1015.45
2018-06-30T04:48:44.534Z,1015.42
2018-06-30T04:49:44.592Z,1015.47
2018-06-30T04:50:44.449Z,1015.49
2018-06-30T04:51:44.445Z,1015.46
2018-06-30T04:52:44.457Z,1015.48
2018-06-30T04:53:44.435Z,1015.46
2018-06-30T04:54:44.442Z,1015.48
2018-06-30T04:55:44.460Z,1015.51
2018-06-30T04:56:44.490Z,1015.52
2018-06-30T04:57:44.483Z,1015.54
2018-06-30T04:58:44.443Z,1015.56
2018-06-30T04:59:44.475Z,1015.53
2018-06-30T05:00:44.454Z,1015.55
2018-06-30T05:01:44.489Z,1015.53
2018-06-30T05:02:44.523Z,1015.54
2018-06-30T05:03:44.469Z,1015.5
2018-06-30T05:04:44.444Z,1015.53
2018-06-30T05:05:44.457Z,1015.49
2018-06-30T05:06:44.457Z,1015.45
2018-06-30T05:07:44.491Z,1015.47
2018-06-30T05:08:44.505Z,1015.5
2018-06-30T05:09:44.441Z,1015.46
2018-06-30T05:10:44.446Z,1015.48
2018-06-30T05:11:44.488Z,1015.47
2018-06-30T05:12:44.595Z,1015.5
2018-06-30T05:13:44.525Z,1015.54
2018-06-30T05:14:44.469Z,1015.54
2018-06-30T05:15:44.436Z,1015.54
2018-06-30T05:16:44.474Z,1015.57
2018-06-30T05:17:45.544Z,1015.55
2018-06-30T05:18:44.495Z,1015.55
2018-06-30T05:19:44.497Z,1015.59
2018-06-30T05:20:44.441Z,1015.56
2018-06-30T05:21:44.487Z,1015.57
2018-06-30T05:22:44.465Z,1015.59
2018-06-30T05:23:44.460Z,1015.54
2018-06-30T05:24:44.581Z,1015.56
2018-06-30T05:25:44.443Z,1015.56
2018-06-30T05:26:44.426Z,1015.58
2018-06-30T05:27:44.465Z,1015.54
2018-06-30T05:28:44.463Z,1015.56
2018-06-30T05:29:44.540Z,1015.59
2018-06-30T05:30:44.463Z,1015.57
2018-06-30T05:31:44.429Z,1015.58
2018-06-30T05:32:44.446Z,1015.57
2018-06-30T05:33:45.409Z,1015.56
2018-06-30T05:34:44.444Z,1015.56
2018-06-30T05:35:44.451Z,1015.58
2018-06-30T05:36:44.461Z,1015.59
2018-06-30T05:37:44.592Z,1015.58
2018-06-30T05:38:44.427Z,1015.63
2018-06-30T05:39:44.475Z,1015.62
2018-06-30T05:40:44.499Z,1015.58
2018-06-30T05:41:45.622Z,1015.61
2018-06-30T05:42:44.494Z,1015.66
2018-06-30T05:43:44.572Z,1015.61
2018-06-30T05:44:44.435Z,1015.64
2018-06-30T05:45:44.505Z,1015.66
2018-06-30T05:46:44.468Z,1015.68
2018-06-30T05:47:44.427Z,1015.69
2018-06-30T05:48:44.436Z,1015.7
2018-06-30T05:49:44.441Z,1015.69
2018-06-30T05:50:44.421Z,1015.68
2018-06-30T05:51:44.581Z,1015.64
2018-06-30T05:52:44.416Z,1015.64
2018-06-30T05:53:44.468Z,1015.62
2018-06-30T05:54:44.465Z,1015.64
2018-06-30T05:55:44.423Z,1015.64
2018-06-30T05:56:44.431Z,1015.64
2018-06-30T05:57:44.497Z,1015.62
2018-06-30T05:58:44.450Z,1015.6
2018-06-30T05:59:44.428Z,1015.63
2018-06-30T06:00:44.417Z,1015.59
2018-06-30T06:01:44.535Z,1015.6
2018-06-30T06:02:44.432Z,1015.64
2018-06-30T06:03:44.510Z,1015.63
2018-06-30T06:04:44.435Z,1015.62
2018-06-30T06:05:44.410Z,1015.59
2018-06-30T06:06:44.427Z,1015.6
2018-06-30T06:07:44.425Z,1015.6
2018-06-30T06:08:44.426Z,1015.61
2018-06-30T06:09:44.554Z,1015.64
2018-06-30T06:10:44.472Z,1015.63
2018-06-30T06:11:44.452Z,1015.65
2018-06-30T06:12:44.548Z,1015.61
2018-06-30T06:13:44.443Z,1015.63
2018-06-30T06:14:44.471Z,1015.64
2018-06-30T06:15:44.435Z,1015.6
2018-06-30T06:16:44.456Z,1015.65
2018-06-30T06:17:44.627Z,1015.69
2018-06-30T06:18:44.443Z,1015.66
2018-06-30T06:19:44.563Z,1015.64
2018-06-30T06:20:44.454Z,1015.69
2018-06-30T06:21:44.472Z,1015.71
2018-06-30T06:22:44.596Z,1015.63
2018-06-30T06:23:44.463Z,1015.64
2018-06-30T06:24:44.506Z,1015.66
2018-06-30T06:25:44.454Z,1015.67
2018-06-30T06:26:44.495Z,1015.71
2018-06-30T06:27:44.519Z,1015.72
2018-06-30T06:28:44.603Z,1015.66
2018-06-30T06:29:44.546Z,1015.68
2018-06-30T06:30:44.529Z,1015.7
2018-06-30T06:31:44.576Z,1015.72
2018-06-30T06:32:44.672Z,1015.77
2018-06-30T06:33:45.146Z,1015.74
2018-06-30T06:34:45.117Z,1015.75
2018-06-30T06:35:45.201Z,1015.77
2018-06-30T06:36:45.398Z,1015.77
2018-06-30T06:37:45.248Z,1015.78
2018-06-30T06:38:45.155Z,1015.73
2018-06-30T06:39:45.422Z,1015.73
2018-06-30T06:40:45.223Z,1015.74
2018-06-30T06:41:45.110Z,1015.72
2018-06-30T06:42:45.232Z,1015.75
2018-06-30T06:43:44.568Z,1015.76
2018-06-30T06:44:45.181Z,1015.78
2018-06-30T06:45:45.149Z,1015.76
2018-06-30T06:46:45.251Z,1015.77
2018-06-30T06:47:45.196Z,1015.76
2018-06-30T06:48:45.162Z,1015.77
2018-06-30T06:49:44.512Z,1015.76
2018-06-30T06:50:45.140Z,1015.79
2018-06-30T06:51:45.137Z,1015.74
2018-06-30T06:52:45.252Z,1015.73
2018-06-30T06:53:45.189Z,1015.73
2018-06-30T06:54:45.159Z,1015.74
2018-06-30T06:55:45.184Z,1015.72
2018-06-30T06:56:44.478Z,1015.75
2018-06-30T06:57:45.222Z,1015.73
2018-06-30T06:58:45.160Z,1015.72
2018-06-30T06:59:44.502Z,1015.69
2018-06-30T07:00:45.231Z,1015.7
2018-06-30T07:01:45.207Z,1015.71
2018-06-30T07:02:44.581Z,1015.73
2018-06-30T07:03:44.422Z,1015.71
2018-06-30T07:04:44.451Z,1015.7
2018-06-30T07:05:44.431Z,1015.67
2018-06-30T07:06:45.297Z,1015.67
2018-06-30T07:07:44.416Z,1015.67
2018-06-30T07:08:44.387Z,1015.67
2018-06-30T07:09:44.390Z,1015.66
2018-06-30T07:10:44.396Z,1015.68
2018-06-30T07:11:44.405Z,1015.68
2018-06-30T07:12:44.382Z,1015.63
2018-06-30T07:13:44.386Z,1015.67
2018-06-30T07:14:44.378Z,1015.65
2018-06-30T07:15:44.400Z,1015.65
2018-06-30T07:16:44.408Z,1015.64
2018-06-30T07:17:44.413Z,1015.66
2018-06-30T07:18:44.600Z,1015.65
2018-06-30T07:19:44.410Z,1015.62
2018-06-30T07:20:44.442Z,1015.68
2018-06-30T07:21:44.447Z,1015.62
2018-06-30T07:22:44.435Z,1015.61
2018-06-30T07:23:44.402Z,1015.63
2018-06-30T07:24:44.398Z,1015.61
2018-06-30T07:25:44.389Z,1015.63
2018-06-30T07:26:44.463Z,1015.62
2018-06-30T07:27:44.528Z,1015.63
2018-06-30T07:28:45.251Z,1015.62
2018-06-30T07:29:45.252Z,1015.6
2018-06-30T07:30:44.485Z,1015.6
2018-06-30T07:31:44.491Z,1015.62
2018-06-30T07:32:44.395Z,1015.57
2018-06-30T07:33:46.140Z,1015.59
2018-06-30T07:34:44.393Z,1015.56
2018-06-30T07:35:44.399Z,1015.59
2018-06-30T07:36:44.381Z,1015.59
2018-06-30T07:37:44.547Z,1015.55
2018-06-30T07:38:44.538Z,1015.53
2018-06-30T07:39:44.512Z,1015.51
2018-06-30T07:40:44.370Z,1015.52
2018-06-30T07:41:44.418Z,1015.54
2018-06-30T07:42:44.415Z,1015.53
2018-06-30T07:43:44.481Z,1015.49
2018-06-30T07:44:45.107Z,1015.51
2018-06-30T07:45:44.410Z,1015.47
2018-06-30T07:46:44.408Z,1015.49
2018-06-30T07:47:45.280Z,1015.47
2018-06-30T07:48:44.452Z,1015.48
2018-06-30T07:49:44.443Z,1015.49
2018-06-30T07:50:44.418Z,1015.44
2018-06-30T07:51:44.439Z,1015.46
2018-06-30T07:52:44.395Z,1015.49
2018-06-30T07:53:44.389Z,1015.5
2018-06-30T07:54:44.387Z,1015.48
2018-06-30T07:55:44.414Z,1015.53
2018-06-30T07:56:44.431Z,1015.46
2018-06-30T07:57:44.408Z,1015.45
2018-06-30T07:58:44.440Z,1015.42
2018-06-30T07:59:44.446Z,1015.44
2018-06-30T08:00:44.421Z,1015.46
2018-06-30T08:01:44.418Z,1015.38
2018-06-30T08:02:44.417Z,1015.39
2018-06-30T08:03:44.456Z,1015.41
2018-06-30T08:04:44.606Z,1015.41
2018-06-30T08:05:44.432Z,1015.37
2018-06-30T08:06:44.411Z,1015.37
2018-06-30T08:07:44.395Z,1015.44
2018-06-30T08:08:44.412Z,1015.42
2018-06-30T08:09:44.403Z,1015.43
2018-06-30T08:10:44.557Z,1015.46
2018-06-30T08:11:44.397Z,1015.42
2018-06-30T08:12:44.441Z,1015.4
2018-06-30T08:13:44.453Z,1015.39
2018-06-30T08:14:44.404Z,1015.4
2018-06-30T08:15:44.451Z,1015.37
2018-06-30T08:16:44.517Z,1015.39
2018-06-30T08:17:44.534Z,1015.38
2018-06-30T08:18:44.421Z,1015.34
2018-06-30T08:19:44.502Z,1015.36
2018-06-30T08:20:44.408Z,1015.35
2018-06-30T08:21:44.462Z,1015.4
2018-06-30T08:22:44.451Z,1015.38
2018-06-30T08:23:44.405Z,1015.39
2018-06-30T08:24:44.401Z,1015.39
2018-06-30T08:25:44.411Z,1015.41
2018-06-30T08:26:44.428Z,1015.4
2018-06-30T08:27:44.428Z,1015.4
2018-06-30T08:28:44.436Z,1015.38
2018-06-30T08:29:44.472Z,1015.35
2018-06-30T08:30:44.478Z,1015.35
2018-06-30T08:31:44.433Z,1015.36
2018-06-30T08:32:44.413Z,1015.35
2018-06-30T08:33:44.687Z,1015.37
2018-06-30T08:34:44.458Z,1015.32
2018-06-30T08:35:44.435Z,1015.32
2018-06-30T08:36:44.467Z,1015.31
2018-06-30T08:37:44.528Z,1015.36
2018-06-30T08:38:44.426Z,1015.33
2018-06-30T08:39:44.444Z,1015.31
2018-06-30T08:40:44.475Z,1015.32
2018-06-30T08:41:44.461Z,1015.29
2018-06-30T08:42:44.422Z,1015.3
2018-06-30T08:43:44.495Z,1015.28
2018-06-30T08:44:44.545Z,1015.26
2018-06-30T08:45:44.430Z,1015.3
2018-06-30T08:46:44.522Z,1015.27
2018-06-30T08:47:44.525Z,1015.22
2018-06-30T08:48:44.474Z,1015.23
2018-06-30T08:49:44.559Z,1015.25
2018-06-30T08:50:44.491Z,1015.26
2018-06-30T08:51:44.525Z,1015.29
2018-06-30T08:52:44.520Z,1015.29
2018-06-30T08:53:44.654Z,1015.27
2018-06-30T08:54:44.542Z,1015.29
2018-06-30T08:55:45.015Z,1015.31
2018-06-30T08:56:44.576Z,1015.26
2018-06-30T08:57:44.615Z,1015.28
2018-06-30T08:58:44.574Z,1015.31
2018-06-30T08:59:44.672Z,1015.29
2018-06-30T09:00:44.680Z,1015.28
2018-06-30T09:01:44.559Z,1015.26
2018-06-30T09:02:44.589Z,1015.27
2018-06-30T09:03:45.585Z,1015.24
2018-06-30T09:04:44.634Z,1015.27
2018-06-30T09:05:44.601Z,1015.26
2018-06-30T09:06:44.987Z,1015.29
2018-06-30T09:07:44.682Z,1015.33
2018-06-30T09:08:44.625Z,1015.28
2018-06-30T09:09:44.510Z,1015.28
2018-06-30T09:10:44.574Z,1015.26
2018-06-30T09:11:44.466Z,1015.31
2018-06-30T09:12:44.523Z,1015.32
2018-06-30T09:13:44.523Z,1015.28
2018-06-30T09:14:44.538Z,1015.28
2018-06-30T09:15:44.539Z,1015.3
2018-06-30T09:16:44.518Z,1015.23
2018-06-30T09:18:15.349Z,1015.25
2018-06-30T09:18:44.532Z,1015.19
2018-06-30T09:19:44.529Z,1015.22
2018-06-30T09:20:44.539Z,1015.23
2018-06-30T09:21:44.492Z,1015.2
2018-06-30T09:22:44.516Z,1015.17
2018-06-30T09:23:44.506Z,1015.23
2018-06-30T09:24:44.483Z,1015.17
2018-06-30T09:25:44.524Z,1015.19
2018-06-30T09:26:44.531Z,1015.16
2018-06-30T09:27:44.521Z,1015.17
2018-06-30T09:28:44.505Z,1015.17
2018-06-30T09:29:44.751Z,1015.18
2018-06-30T09:30:44.528Z,1015.16
2018-06-30T09:31:44.506Z,1015.16
2018-06-30T09:32:44.549Z,1015.13
2018-06-30T09:33:44.489Z,1015.14
2018-06-30T09:34:44.542Z,1015.19
2018-06-30T09:35:44.523Z,1015.12
2018-06-30T09:36:44.505Z,1015.09
2018-06-30T09:37:44.505Z,1015.08
2018-06-30T09:38:44.552Z,1015.07
2018-06-30T09:39:44.518Z,1015.09
2018-06-30T09:40:44.579Z,1015.08
2018-06-30T09:41:44.623Z,1015.1
2018-06-30T09:42:44.604Z,1015.11
2018-06-30T09:43:44.565Z,1015.03
2018-06-30T09:44:44.756Z,1015.07
2018-06-30T09:45:44.512Z,1015.02
2018-06-30T09:46:44.811Z,1015.07
2018-06-30T09:47:44.623Z,1015.08
2018-06-30T09:48:44.668Z,1015.09
2018-06-30T09:49:44.704Z,1015.05
2018-06-30T09:50:44.638Z,1015.05
2018-06-30T09:51:44.909Z,1015.08
2018-06-30T09:52:44.645Z,1015.06
2018-06-30T09:53:44.582Z,1015.06
2018-06-30T09:54:44.707Z,1015.07
2018-06-30T09:55:44.774Z,1015.06
2018-06-30T09:56:45.821Z,1015.06
2018-06-30T09:57:44.738Z,1015.01
2018-06-30T09:58:44.736Z,1014.97
2018-06-30T09:59:44.546Z,1015.01
2018-06-30T10:00:44.767Z,1015.02
2018-06-30T10:01:44.767Z,1015.04
2018-06-30T10:02:44.760Z,1014.99
2018-06-30T10:03:44.759Z,1015.01
2018-06-30T10:04:44.783Z,1015
2018-06-30T10:05:44.818Z,1014.97
2018-06-30T10:06:44.916Z,1014.95
2018-06-30T10:07:44.809Z,1014.9
2018-06-30T10:08:44.794Z,1014.94
2018-06-30T10:09:44.559Z,1014.97
2018-06-30T10:10:44.804Z,1014.92
2018-06-30T10:11:44.579Z,1014.97
2018-06-30T10:12:44.854Z,1014.92
2018-06-30T10:13:44.830Z,1014.88
2018-06-30T10:14:45.017Z,1014.91
2018-06-30T10:15:44.588Z,1014.96
2018-06-30T10:16:44.840Z,1014.88
2018-06-30T10:17:44.846Z,1014.9
2018-06-30T10:18:44.844Z,1014.91
2018-06-30T10:19:44.881Z,1014.88
2018-06-30T10:20:44.984Z,1014.83
2018-06-30T10:21:44.586Z,1014.84
2018-06-30T10:22:45.061Z,1014.83
2018-06-30T10:23:44.872Z,1014.81
2018-06-30T10:24:44.862Z,1014.82
2018-06-30T10:25:46.902Z,1014.82
2018-06-30T10:26:44.680Z,1014.79
2018-06-30T10:27:44.684Z,1014.77
2018-06-30T10:28:44.923Z,1014.79
2018-06-30T10:29:44.934Z,1014.79
2018-06-30T10:30:44.616Z,1014.8
2018-06-30T10:31:44.623Z,1014.79
2018-06-30T10:32:44.584Z,1014.78
2018-06-30T10:33:44.594Z,1014.75
2018-06-30T10:34:44.594Z,1014.74
2018-06-30T10:35:44.638Z,1014.72
2018-06-30T10:36:44.607Z,1014.73
2018-06-30T10:37:45.471Z,1014.67
2018-06-30T10:38:44.645Z,1014.71
2018-06-30T10:39:44.771Z,1014.7
2018-06-30T10:40:44.678Z,1014.68
2018-06-30T10:41:44.677Z,1014.65
2018-06-30T10:42:44.699Z,1014.69
2018-06-30T10:43:44.697Z,1014.6
2018-06-30T10:44:44.804Z,1014.65
2018-06-30T10:45:44.808Z,1014.69
2018-06-30T10:46:44.728Z,1014.67
2018-06-30T10:47:44.723Z,1014.6
2018-06-30T10:48:44.651Z,1014.64
2018-06-30T10:49:44.741Z,1014.58
2018-06-30T10:50:44.852Z,1014.59
2018-06-30T10:51:44.749Z,1014.57
2018-06-30T10:52:44.861Z,1014.55
2018-06-30T10:53:44.629Z,1014.54
2018-06-30T10:54:44.769Z,1014.51
2018-06-30T10:55:45.735Z,1014.54
2018-06-30T10:56:44.667Z,1014.51
2018-06-30T10:57:44.647Z,1014.54
2018-06-30T10:58:44.803Z,1014.57
2018-06-30T10:59:44.779Z,1014.52
2018-06-30T11:00:44.684Z,1014.48
2018-06-30T11:01:44.830Z,1014.5
2018-06-30T11:02:44.829Z,1014.51
2018-06-30T11:03:44.869Z,1014.5
2018-06-30T11:04:44.738Z,1014.45
2018-06-30T11:05:44.838Z,1014.45
2018-06-30T11:06:44.668Z,1014.5
2018-06-30T11:07:45.166Z,1014.39
2018-06-30T11:08:44.870Z,1014.38
2018-06-30T11:09:44.713Z,1014.39
2018-06-30T11:10:44.782Z,1014.41
2018-06-30T11:11:44.648Z,1014.42
2018-06-30T11:12:44.965Z,1014.35
2018-06-30T11:13:44.810Z,1014.37
2018-06-30T11:14:44.697Z,1014.36
2018-06-30T11:15:44.714Z,1014.31
2018-06-30T11:16:44.720Z,1014.32
2018-06-30T11:17:44.769Z,1014.29
2018-06-30T11:18:44.723Z,1014.24
2018-06-30T11:19:44.862Z,1014.3
2018-06-30T11:20:44.654Z,1014.33
2018-06-30T11:21:44.653Z,1014.28
2018-06-30T11:22:44.865Z,1014.25
2018-06-30T11:23:44.782Z,1014.3
2018-06-30T11:24:44.804Z,1014.26
2018-06-30T11:25:44.800Z,1014.25
2018-06-30T11:26:44.700Z,1014.28
2018-06-30T11:27:44.769Z,1014.25
2018-06-30T11:28:44.811Z,1014.2
2018-06-30T11:29:44.836Z,1014.23
2018-06-30T11:30:44.696Z,1014.22
2018-06-30T11:31:44.729Z,1014.18
2018-06-30T11:32:44.738Z,1014.09
2018-06-30T11:33:44.765Z,1014.24
2018-06-30T11:34:44.695Z,1014.16
2018-06-30T11:35:44.675Z,1014.19
2018-06-30T11:36:44.666Z,1014.13
2018-06-30T11:37:44.732Z,1014.14
2018-06-30T11:38:44.666Z,1014.14
2018-06-30T11:39:44.654Z,1014.09
2018-06-30T11:40:45.036Z,1014.13
2018-06-30T11:41:44.837Z,1014.13
2018-06-30T11:42:44.670Z,1014.13
2018-06-30T11:43:44.829Z,1014.12
2018-06-30T11:44:44.679Z,1014.11
2018-06-30T11:45:44.671Z,1014.13
2018-06-30T11:46:44.835Z,1014.17
2018-06-30T11:47:44.838Z,1014.16
2018-06-30T11:48:44.715Z,1014.12
2018-06-30T11:49:44.681Z,1014.08
2018-06-30T11:50:44.763Z,1014.1
2018-06-30T11:51:44.726Z,1014.03
2018-06-30T11:52:44.736Z,1014.04
2018-06-30T11:53:44.790Z,1014.08
2018-06-30T11:54:44.722Z,1014.06
2018-06-30T11:55:44.806Z,1014.05
2018-06-30T11:56:44.799Z,1014.01
2018-06-30T11:57:44.805Z,1014.04
2018-06-30T11:58:44.953Z,1014.02
2018-06-30T11:59:44.790Z,1014.1
2018-06-30T12:00:44.700Z,1014.08
2018-06-30T12:01:46.786Z,1014.04
2018-06-30T12:02:44.845Z,1014.07
2018-06-30T12:03:44.710Z,1014.03
2018-06-30T12:04:44.801Z,1014.02
2018-06-30T12:05:44.753Z,1014.02
2018-06-30T12:06:44.768Z,1014.02
2018-06-30T12:07:44.884Z,1014.01
2018-06-30T12:08:44.807Z,1014.03
2018-06-30T12:09:44.827Z,1013.96